This is the latest recevied weather packets stored in our database for station/object DG8SF-13. If no packets are shown the sender has not sent any weather packets the latest 1 day(s).
| Time | Temp. | Humidity | Pressure | Rain* | Wind** | Luminosity | Snow |
|---|---|---|---|---|---|---|---|
| 1778005064 | 15° C | 68% | 1006.6 hPa | 0 mm | 0 m/s | - | - |
| 1778004749 | 15.56° C | 71% | 1006.6 hPa | 0 mm | 0 m/s | - | - |
| 1778004439 | 15.56° C | 70% | 1006.5 hPa | 0 mm | 0 m/s | - | - |
| 1778004126 | 15.56° C | 69% | 1006.4 hPa | 0 mm | 0.45 m/s, 112° | - | - |
| 1778003814 | 15.56° C | 67% | 1006.5 hPa | 0 mm | 0.45 m/s, 112° | - | - |
| 1778003501 | 16.11° C | 68% | 1006.5 hPa | 0 mm | 0 m/s | - | - |
| 1778003191 | 16.11° C | 70% | 1006.4 hPa | 0 mm | 0 m/s | - | - |
| 1778002877 | 16.11° C | 69% | 1006.4 hPa | 0 mm | 0 m/s | - | - |
| 1778002568 | 16.67° C | 69% | 1006.3 hPa | 0 mm | 0.45 m/s, 112° | - | - |
| 1778002253 | 16.67° C | 68% | 1006.4 hPa | 0 mm | 0.45 m/s, 112° | - | - |
| 1778001942 | 16.67° C | 66% | 1006.4 hPa | 0 mm | 0.45 m/s, 248° | - | - |
| 1778001629 | 17.22° C | 65% | 1006.4 hPa | 0 mm | 0.45 m/s, 248° | - | - |
| 1778001319 | 17.78° C | 62% | 1006.3 hPa | 0 mm | 0.45 m/s, 248° | - | - |
| 1778001006 | 18.89° C | 60% | 1006.2 hPa | 0 mm | 0.45 m/s, 225° | - | - |
| 1778000697 | 19.44° C | 55% | 1006 hPa | 0 mm | 0 m/s | - | - |
| 1778000381 | 19.44° C | 57% | 1006.1 hPa | 0 mm | 0 m/s | - | - |
| 1778000070 | 20° C | 57% | 1006.1 hPa | 0 mm | 0 m/s | - | - |
| 1777999758 | 20.56° C | 55% | 1006.1 hPa | 0 mm | 0 m/s | - | - |
| 1777999445 | 18.89° C | 58% | 1006.2 hPa | 0 mm | 0 m/s | - | - |
| 1777999134 | 19.44° C | 59% | 1006.2 hPa | 0 mm | 0 m/s | - | - |
| 1777998822 | 18.33° C | 63% | 1006.3 hPa | 0 mm | 0 m/s | - | - |
| 1777998509 | 18.33° C | 64% | 1006.4 hPa | 0 mm | 0 m/s | - | - |
| 1777998197 | 17.78° C | 63% | 1006.4 hPa | 0 mm | 0 m/s | - | - |
| 1777997886 | 18.33° C | 64% | 1006.3 hPa | 0 mm | 0 m/s | - | - |
| 1777997573 | 17.78° C | 66% | 1006.4 hPa | 0 mm | 0 m/s | - | - |
* Rain latest hour (hover to see other rain measurements)
** Current wind speed in m/s (hover to see current wind gust speed)